sensor_id;sensor_type;location;lat;lon;timestamp;temperature;humidity
1103;DHT22;538;42.654;23.376;2022-10-17T00:01:50;9.60;35.20
1103;DHT22;538;42.654;23.376;2022-10-17T00:04:20;9.60;35.70
1103;DHT22;538;42.654;23.376;2022-10-17T00:06:48;9.70;36.00
1103;DHT22;538;42.654;23.376;2022-10-17T00:09:15;9.60;35.60
1103;DHT22;538;42.654;23.376;2022-10-17T00:11:42;9.60;34.90
1103;DHT22;538;42.654;23.376;2022-10-17T00:14:09;9.60;34.90
1103;DHT22;538;42.654;23.376;2022-10-17T00:16:36;9.60;35.00
1103;DHT22;538;42.654;23.376;2022-10-17T00:19:04;9.50;35.90
1103;DHT22;538;42.654;23.376;2022-10-17T00:21:33;9.50;36.80
1103;DHT22;538;42.654;23.376;2022-10-17T00:24:00;9.40;34.90
1103;DHT22;538;42.654;23.376;2022-10-17T00:26:28;9.30;33.20
1103;DHT22;538;42.654;23.376;2022-10-17T00:28:55;9.20;32.10
1103;DHT22;538;42.654;23.376;2022-10-17T00:31:23;9.00;33.00
1103;DHT22;538;42.654;23.376;2022-10-17T00:33:51;8.80;33.90
1103;DHT22;538;42.654;23.376;2022-10-17T00:36:20;8.70;35.60
1103;DHT22;538;42.654;23.376;2022-10-17T00:38:50;8.50;37.40
1103;DHT22;538;42.654;23.376;2022-10-17T00:41:19;8.40;38.50
1103;DHT22;538;42.654;23.376;2022-10-17T00:44:05;8.30;39.70
1103;DHT22;538;42.654;23.376;2022-10-17T00:46:34;8.20;40.40
1103;DHT22;538;42.654;23.376;2022-10-17T00:49:05;8.20;42.00
1103;DHT22;538;42.654;23.376;2022-10-17T00:51:35;8.20;42.50
1103;DHT22;538;42.654;23.376;2022-10-17T00:54:05;8.30;43.30
1103;DHT22;538;42.654;23.376;2022-10-17T00:56:33;8.20;43.80
1103;DHT22;538;42.654;23.376;2022-10-17T00:59:01;8.30;43.40
1103;DHT22;538;42.654;23.376;2022-10-17T01:01:28;8.40;43.30
1103;DHT22;538;42.654;23.376;2022-10-17T01:03:55;8.40;42.80
1103;DHT22;538;42.654;23.376;2022-10-17T01:06:22;8.60;43.60
1103;DHT22;538;42.654;23.376;2022-10-17T01:08:49;8.60;43.40
1103;DHT22;538;42.654;23.376;2022-10-17T01:11:28;8.60;42.50
1103;DHT22;538;42.654;23.376;2022-10-17T01:14:03;8.60;42.60
1103;DHT22;538;42.654;23.376;2022-10-17T01:16:38;8.50;43.70
1103;DHT22;538;42.654;23.376;2022-10-17T01:22:09;8.70;44.50
1103;DHT22;538;42.654;23.376;2022-10-17T01:24:47;8.70;43.60
1103;DHT22;538;42.654;23.376;2022-10-17T01:27:39;8.70;43.30
1103;DHT22;538;42.654;23.376;2022-10-17T01:33:23;8.50;43.70
1103;DHT22;538;42.654;23.376;2022-10-17T01:35:55;8.40;43.80
1103;DHT22;538;42.654;23.376;2022-10-17T01:38:27;8.40;45.30
1103;DHT22;538;42.654;23.376;2022-10-17T01:41:02;8.50;45.30
1103;DHT22;538;42.654;23.376;2022-10-17T01:43:36;8.40;43.70
1103;DHT22;538;42.654;23.376;2022-10-17T01:46:11;8.20;43.60
1103;DHT22;538;42.654;23.376;2022-10-17T01:48:43;8.20;43.90
1103;DHT22;538;42.654;23.376;2022-10-17T01:51:16;8.20;43.80
1103;DHT22;538;42.654;23.376;2022-10-17T01:53:48;8.10;45.30
1103;DHT22;538;42.654;23.376;2022-10-17T01:56:18;8.10;45.20
1103;DHT22;538;42.654;23.376;2022-10-17T01:58:51;8.10;46.10
1103;DHT22;538;42.654;23.376;2022-10-17T02:01:19;8.10;46.60
1103;DHT22;538;42.654;23.376;2022-10-17T02:03:50;8.00;47.20
1103;DHT22;538;42.654;23.376;2022-10-17T02:06:18;8.00;46.60
1103;DHT22;538;42.654;23.376;2022-10-17T02:08:46;7.90;46.90
1103;DHT22;538;42.654;23.376;2022-10-17T02:11:16;7.90;47.30
1103;DHT22;538;42.654;23.376;2022-10-17T02:16:41;7.70;49.20
1103;DHT22;538;42.654;23.376;2022-10-17T02:19:33;7.60;49.90
1103;DHT22;538;42.654;23.376;2022-10-17T02:22:13;7.60;50.70
1103;DHT22;538;42.654;23.376;2022-10-17T02:24:48;7.70;51.70
1103;DHT22;538;42.654;23.376;2022-10-17T02:27:22;7.60;51.90
1103;DHT22;538;42.654;23.376;2022-10-17T02:29:55;7.50;52.50
1103;DHT22;538;42.654;23.376;2022-10-17T02:32:30;7.50;53.10
1103;DHT22;538;42.654;23.376;2022-10-17T02:35:02;7.40;53.30
1103;DHT22;538;42.654;23.376;2022-10-17T02:37:31;7.40;53.50
1103;DHT22;538;42.654;23.376;2022-10-17T02:39:59;7.40;54.60
1103;DHT22;538;42.654;23.376;2022-10-17T02:42:28;7.40;54.70
1103;DHT22;538;42.654;23.376;2022-10-17T02:44:58;7.30;54.70
1103;DHT22;538;42.654;23.376;2022-10-17T02:47:30;7.40;55.00
1103;DHT22;538;42.654;23.376;2022-10-17T02:50:00;7.30;54.90
1103;DHT22;538;42.654;23.376;2022-10-17T02:52:33;7.30;55.60
1103;DHT22;538;42.654;23.376;2022-10-17T02:55:05;7.30;55.50
1103;DHT22;538;42.654;23.376;2022-10-17T02:57:36;7.40;55.40
1103;DHT22;538;42.654;23.376;2022-10-17T03:00:07;7.40;54.60
1103;DHT22;538;42.654;23.376;2022-10-17T03:02:39;7.40;54.30
1103;DHT22;538;42.654;23.376;2022-10-17T03:05:08;7.50;54.90
1103;DHT22;538;42.654;23.376;2022-10-17T03:07:36;7.50;54.10
1103;DHT22;538;42.654;23.376;2022-10-17T03:10:04;7.50;55.90
1103;DHT22;538;42.654;23.376;2022-10-17T03:12:31;7.50;56.00
1103;DHT22;538;42.654;23.376;2022-10-17T03:14:58;7.60;54.70
1103;DHT22;538;42.654;23.376;2022-10-17T03:17:25;7.70;54.30
1103;DHT22;538;42.654;23.376;2022-10-17T03:19:52;7.80;54.50
1103;DHT22;538;42.654;23.376;2022-10-17T03:22:21;7.80;52.60
1103;DHT22;538;42.654;23.376;2022-10-17T03:24:48;7.70;51.80
1103;DHT22;538;42.654;23.376;2022-10-17T03:27:15;7.70;52.00
1103;DHT22;538;42.654;23.376;2022-10-17T03:29:42;7.80;52.60
1103;DHT22;538;42.654;23.376;2022-10-17T03:32:09;7.80;50.90
1103;DHT22;538;42.654;23.376;2022-10-17T03:34:36;7.90;51.10
1103;DHT22;538;42.654;23.376;2022-10-17T03:37:03;7.80;50.10
1103;DHT22;538;42.654;23.376;2022-10-17T03:39:31;7.70;50.50
1103;DHT22;538;42.654;23.376;2022-10-17T03:41:58;7.60;49.90
1103;DHT22;538;42.654;23.376;2022-10-17T03:44:25;7.50;50.70
1103;DHT22;538;42.654;23.376;2022-10-17T03:46:52;7.50;51.40
1103;DHT22;538;42.654;23.376;2022-10-17T03:49:19;7.40;51.40
1103;DHT22;538;42.654;23.376;2022-10-17T03:51:47;7.20;52.60
1103;DHT22;538;42.654;23.376;2022-10-17T03:54:14;7.20;53.10
1103;DHT22;538;42.654;23.376;2022-10-17T03:56:42;7.20;55.20
1103;DHT22;538;42.654;23.376;2022-10-17T03:59:12;7.10;56.20
1103;DHT22;538;42.654;23.376;2022-10-17T04:01:39;7.00;58.00
1103;DHT22;538;42.654;23.376;2022-10-17T04:04:07;7.00;58.60
1103;DHT22;538;42.654;23.376;2022-10-17T04:06:35;7.00;60.00
1103;DHT22;538;42.654;23.376;2022-10-17T04:09:03;7.10;60.40
1103;DHT22;538;42.654;23.376;2022-10-17T04:11:30;7.00;60.30
1103;DHT22;538;42.654;23.376;2022-10-17T04:13:59;7.00;59.10
1103;DHT22;538;42.654;23.376;2022-10-17T04:16:26;6.90;58.50
1103;DHT22;538;42.654;23.376;2022-10-17T04:18:55;6.90;58.90
1103;DHT22;538;42.654;23.376;2022-10-17T04:21:24;6.70;58.90
1103;DHT22;538;42.654;23.376;2022-10-17T04:23:53;6.70;59.60
1103;DHT22;538;42.654;23.376;2022-10-17T04:26:20;6.60;60.80
1103;DHT22;538;42.654;23.376;2022-10-17T04:28:48;6.50;62.20
1103;DHT22;538;42.654;23.376;2022-10-17T04:31:17;6.50;64.10
1103;DHT22;538;42.654;23.376;2022-10-17T04:33:46;6.50;65.90
1103;DHT22;538;42.654;23.376;2022-10-17T04:36:15;6.40;66.90
1103;DHT22;538;42.654;23.376;2022-10-17T04:38:42;6.40;67.30
1103;DHT22;538;42.654;23.376;2022-10-17T04:41:14;6.40;67.20
1103;DHT22;538;42.654;23.376;2022-10-17T04:43:45;6.40;67.10
1103;DHT22;538;42.654;23.376;2022-10-17T04:46:14;6.40;67.10
1103;DHT22;538;42.654;23.376;2022-10-17T04:48:43;6.50;66.50
1103;DHT22;538;42.654;23.376;2022-10-17T04:51:14;6.50;67.10
1103;DHT22;538;42.654;23.376;2022-10-17T04:53:45;6.50;65.90
1103;DHT22;538;42.654;23.376;2022-10-17T04:56:15;6.40;66.00
1103;DHT22;538;42.654;23.376;2022-10-17T04:58:48;6.30;66.20
1103;DHT22;538;42.654;23.376;2022-10-17T05:01:17;6.30;66.80
1103;DHT22;538;42.654;23.376;2022-10-17T05:03:49;6.30;65.50
1103;DHT22;538;42.654;23.376;2022-10-17T05:06:23;6.40;65.80
1103;DHT22;538;42.654;23.376;2022-10-17T05:08:52;6.30;65.70
1103;DHT22;538;42.654;23.376;2022-10-17T05:11:21;6.30;65.70
1103;DHT22;538;42.654;23.376;2022-10-17T05:13:51;6.40;66.00
1103;DHT22;538;42.654;23.376;2022-10-17T05:16:19;6.40;66.10
1103;DHT22;538;42.654;23.376;2022-10-17T05:18:49;6.40;66.20
1103;DHT22;538;42.654;23.376;2022-10-17T05:21:17;6.40;66.30
1103;DHT22;538;42.654;23.376;2022-10-17T05:23:44;6.40;66.40
1103;DHT22;538;42.654;23.376;2022-10-17T05:26:12;6.50;69.10
1103;DHT22;538;42.654;23.376;2022-10-17T05:28:40;6.60;70.30
1103;DHT22;538;42.654;23.376;2022-10-17T05:31:08;6.70;68.40
1103;DHT22;538;42.654;23.376;2022-10-17T05:33:36;6.70;66.80
1103;DHT22;538;42.654;23.376;2022-10-17T05:36:06;6.70;65.80
1103;DHT22;538;42.654;23.376;2022-10-17T05:38:33;6.80;65.60
1103;DHT22;538;42.654;23.376;2022-10-17T05:41:02;6.80;64.50
1103;DHT22;538;42.654;23.376;2022-10-17T05:43:30;6.80;64.40
1103;DHT22;538;42.654;23.376;2022-10-17T05:45:57;6.80;64.50
1103;DHT22;538;42.654;23.376;2022-10-17T05:48:24;6.90;65.10
1103;DHT22;538;42.654;23.376;2022-10-17T05:50:57;7.00;64.60
1103;DHT22;538;42.654;23.376;2022-10-17T05:53:29;6.90;64.70
1103;DHT22;538;42.654;23.376;2022-10-17T05:55:57;7.00;64.50
1103;DHT22;538;42.654;23.376;2022-10-17T05:58:25;7.00;62.70
1103;DHT22;538;42.654;23.376;2022-10-17T06:00:56;7.10;63.60
1103;DHT22;538;42.654;23.376;2022-10-17T06:03:24;7.20;62.30
1103;DHT22;538;42.654;23.376;2022-10-17T06:05:51;7.30;62.40
1103;DHT22;538;42.654;23.376;2022-10-17T06:08:19;7.50;61.90
1103;DHT22;538;42.654;23.376;2022-10-17T06:10:48;7.50;60.70
1103;DHT22;538;42.654;23.376;2022-10-17T06:13:15;7.50;58.40
1103;DHT22;538;42.654;23.376;2022-10-17T06:15:42;7.60;56.80
1103;DHT22;538;42.654;23.376;2022-10-17T06:18:10;7.60;55.60
1103;DHT22;538;42.654;23.376;2022-10-17T06:20:37;7.70;54.90
1103;DHT22;538;42.654;23.376;2022-10-17T06:23:04;7.80;55.40
1103;DHT22;538;42.654;23.376;2022-10-17T06:25:33;7.80;54.40
1103;DHT22;538;42.654;23.376;2022-10-17T06:28:01;8.00;54.50
1103;DHT22;538;42.654;23.376;2022-10-17T06:30:37;8.10;52.80
1103;DHT22;538;42.654;23.376;2022-10-17T06:33:04;8.20;51.20
1103;DHT22;538;42.654;23.376;2022-10-17T06:35:31;8.30;50.40
1103;DHT22;538;42.654;23.376;2022-10-17T06:38:00;8.40;49.10
1103;DHT22;538;42.654;23.376;2022-10-17T06:40:28;8.60;48.00
1103;DHT22;538;42.654;23.376;2022-10-17T06:42:56;8.70;46.10
1103;DHT22;538;42.654;23.376;2022-10-17T06:45:27;8.90;45.30
1103;DHT22;538;42.654;23.376;2022-10-17T06:47:54;8.90;44.00
1103;DHT22;538;42.654;23.376;2022-10-17T06:50:21;8.90;42.30
1103;DHT22;538;42.654;23.376;2022-10-17T06:52:50;9.00;41.90
1103;DHT22;538;42.654;23.376;2022-10-17T06:55:17;9.00;40.90
1103;DHT22;538;42.654;23.376;2022-10-17T06:57:44;9.10;41.20
1103;DHT22;538;42.654;23.376;2022-10-17T07:00:12;9.20;40.40
1103;DHT22;538;42.654;23.376;2022-10-17T07:02:41;9.40;39.00
1103;DHT22;538;42.654;23.376;2022-10-17T07:05:08;9.40;38.30
1103;DHT22;538;42.654;23.376;2022-10-17T07:07:35;9.50;37.40
1103;DHT22;538;42.654;23.376;2022-10-17T07:10:03;9.60;37.00
1103;DHT22;538;42.654;23.376;2022-10-17T07:12:33;9.50;35.60
1103;DHT22;538;42.654;23.376;2022-10-17T07:15:00;9.60;35.70
1103;DHT22;538;42.654;23.376;2022-10-17T07:17:29;9.70;34.90
1103;DHT22;538;42.654;23.376;2022-10-17T07:19:57;9.70;34.30
1103;DHT22;538;42.654;23.376;2022-10-17T07:22:24;9.70;35.20
1103;DHT22;538;42.654;23.376;2022-10-17T07:24:51;9.80;35.70
1103;DHT22;538;42.654;23.376;2022-10-17T07:27:18;10.00;34.20
1103;DHT22;538;42.654;23.376;2022-10-17T07:29:45;10.20;33.00
1103;DHT22;538;42.654;23.376;2022-10-17T07:32:12;10.20;33.00
1103;DHT22;538;42.654;23.376;2022-10-17T07:34:39;10.40;33.20
1103;DHT22;538;42.654;23.376;2022-10-17T07:37:07;10.50;32.10
1103;DHT22;538;42.654;23.376;2022-10-17T07:39:35;10.70;30.80
1103;DHT22;538;42.654;23.376;2022-10-17T07:42:04;10.80;31.40
1103;DHT22;538;42.654;23.376;2022-10-17T07:44:33;10.90;32.80
1103;DHT22;538;42.654;23.376;2022-10-17T07:47:01;11.00;31.70
1103;DHT22;538;42.654;23.376;2022-10-17T07:49:28;11.10;30.00
1103;DHT22;538;42.654;23.376;2022-10-17T07:51:55;11.20;28.70
1103;DHT22;538;42.654;23.376;2022-10-17T07:54:24;11.40;28.90
1103;DHT22;538;42.654;23.376;2022-10-17T07:56:51;11.60;28.20
1103;DHT22;538;42.654;23.376;2022-10-17T07:59:18;11.70;26.90
1103;DHT22;538;42.654;23.376;2022-10-17T08:01:46;11.90;27.10
1103;DHT22;538;42.654;23.376;2022-10-17T08:04:13;12.10;27.10
1103;DHT22;538;42.654;23.376;2022-10-17T08:06:41;12.20;25.60
1103;DHT22;538;42.654;23.376;2022-10-17T08:09:08;12.30;25.10
1103;DHT22;538;42.654;23.376;2022-10-17T08:11:37;12.60;24.60
1103;DHT22;538;42.654;23.376;2022-10-17T08:14:04;12.80;22.80
1103;DHT22;538;42.654;23.376;2022-10-17T08:16:31;13.10;22.60
1103;DHT22;538;42.654;23.376;2022-10-17T08:18:58;13.30;22.00
1103;DHT22;538;42.654;23.376;2022-10-17T08:21:26;13.50;20.70
1103;DHT22;538;42.654;23.376;2022-10-17T08:23:53;13.70;20.40
1103;DHT22;538;42.654;23.376;2022-10-17T08:26:20;13.90;18.90
1103;DHT22;538;42.654;23.376;2022-10-17T08:28:49;14.20;18.00
1103;DHT22;538;42.654;23.376;2022-10-17T08:31:18;14.50;17.50
1103;DHT22;538;42.654;23.376;2022-10-17T08:33:45;14.80;16.50
1103;DHT22;538;42.654;23.376;2022-10-17T08:36:14;15.10;16.60
1103;DHT22;538;42.654;23.376;2022-10-17T08:38:42;15.30;16.30
1103;DHT22;538;42.654;23.376;2022-10-17T08:41:14;15.60;14.70
1103;DHT22;538;42.654;23.376;2022-10-17T08:43:55;16.00;14.30
1103;DHT22;538;42.654;23.376;2022-10-17T08:46:29;16.30;13.40
1103;DHT22;538;42.654;23.376;2022-10-17T08:48:58;16.60;12.90
1103;DHT22;538;42.654;23.376;2022-10-17T08:51:30;16.90;12.40
1103;DHT22;538;42.654;23.376;2022-10-17T08:54:05;17.30;11.30
1103;DHT22;538;42.654;23.376;2022-10-17T08:56:41;17.60;10.90
1103;DHT22;538;42.654;23.376;2022-10-17T08:59:12;17.90;9.10
1103;DHT22;538;42.654;23.376;2022-10-17T09:01:43;18.00;8.50
1103;DHT22;538;42.654;23.376;2022-10-17T09:07:20;18.50;7.00
1103;DHT22;538;42.654;23.376;2022-10-17T09:09:54;18.70;7.40
1103;DHT22;538;42.654;23.376;2022-10-17T09:12:30;18.90;5.10
1103;DHT22;538;42.654;23.376;2022-10-17T09:15:35;19.10;6.20
1103;DHT22;538;42.654;23.376;2022-10-17T09:18:10;19.30;4.70
1103;DHT22;538;42.654;23.376;2022-10-17T09:20:41;19.30;4.90
1103;DHT22;538;42.654;23.376;2022-10-17T09:23:14;19.50;5.40
1103;DHT22;538;42.654;23.376;2022-10-17T09:25:44;20.00;5.40
1103;DHT22;538;42.654;23.376;2022-10-17T09:28:16;20.30;4.50
1103;DHT22;538;42.654;23.376;2022-10-17T09:30:48;20.40;4.10
1103;DHT22;538;42.654;23.376;2022-10-17T09:33:18;20.60;4.50
1103;DHT22;538;42.654;23.376;2022-10-17T09:35:46;20.80;3.80
1103;DHT22;538;42.654;23.376;2022-10-17T09:38:16;21.20;3.50
1103;DHT22;538;42.654;23.376;2022-10-17T09:40:47;21.40;2.80
1103;DHT22;538;42.654;23.376;2022-10-17T09:43:15;21.70;2.70
1103;DHT22;538;42.654;23.376;2022-10-17T09:45:48;21.90;1.00
1103;DHT22;538;42.654;23.376;2022-10-17T09:48:27;22.30;1.00
1103;DHT22;538;42.654;23.376;2022-10-17T09:50:58;22.40;1.00
1103;DHT22;538;42.654;23.376;2022-10-17T09:53:29;22.80;1.00
1103;DHT22;538;42.654;23.376;2022-10-17T09:56:04;23.10;1.00
1103;DHT22;538;42.654;23.376;2022-10-17T09:58:40;23.20;1.00
1103;DHT22;538;42.654;23.376;2022-10-17T10:01:20;23.60;1.00
1103;DHT22;538;42.654;23.376;2022-10-17T10:03:48;23.80;1.00
1103;DHT22;538;42.654;23.376;2022-10-17T10:06:19;23.70;1.00
1103;DHT22;538;42.654;23.376;2022-10-17T10:08:48;24.30;1.00
1103;DHT22;538;42.654;23.376;2022-10-17T10:11:16;24.70;1.00
1103;DHT22;538;42.654;23.376;2022-10-17T10:13:46;24.70;1.00
1103;DHT22;538;42.654;23.376;2022-10-17T10:16:18;25.20;1.00
1103;DHT22;538;42.654;23.376;2022-10-17T10:18:46;25.60;1.00
1103;DHT22;538;42.654;23.376;2022-10-17T10:21:16;26.00;1.00
1103;DHT22;538;42.654;23.376;2022-10-17T10:24:01;26.50;1.00
1103;DHT22;538;42.654;23.376;2022-10-17T10:26:33;27.10;1.00
1103;DHT22;538;42.654;23.376;2022-10-17T10:29:04;27.80;1.00
1103;DHT22;538;42.654;23.376;2022-10-17T10:31:37;28.00;1.00
1103;DHT22;538;42.654;23.376;2022-10-17T10:34:16;28.40;1.00
1103;DHT22;538;42.654;23.376;2022-10-17T10:36:55;28.50;1.00
1103;DHT22;538;42.654;23.376;2022-10-17T10:39:36;28.80;1.00
1103;DHT22;538;42.654;23.376;2022-10-17T10:42:17;29.30;1.00
1103;DHT22;538;42.654;23.376;2022-10-17T10:44:45;30.00;1.00
1103;DHT22;538;42.654;23.376;2022-10-17T10:47:23;30.30;1.00
1103;DHT22;538;42.654;23.376;2022-10-17T10:49:52;30.80;1.00
1103;DHT22;538;42.654;23.376;2022-10-17T10:52:30;31.50;1.00
1103;DHT22;538;42.654;23.376;2022-10-17T10:55:06;32.20;1.00
1103;DHT22;538;42.654;23.376;2022-10-17T10:57:43;32.90;1.00
1103;DHT22;538;42.654;23.376;2022-10-17T11:00:14;33.50;1.00
1103;DHT22;538;42.654;23.376;2022-10-17T11:02:48;34.00;1.00
1103;DHT22;538;42.654;23.376;2022-10-17T11:05:23;33.70;1.00
1103;DHT22;538;42.654;23.376;2022-10-17T11:07:53;34.00;1.00
1103;DHT22;538;42.654;23.376;2022-10-17T11:10:28;34.00;1.00
1103;DHT22;538;42.654;23.376;2022-10-17T11:12:59;34.40;1.00
1103;DHT22;538;42.654;23.376;2022-10-17T11:15:33;33.10;1.00
1103;DHT22;538;42.654;23.376;2022-10-17T11:18:05;33.00;1.00
1103;DHT22;538;42.654;23.376;2022-10-17T11:20:42;33.10;1.00
1103;DHT22;538;42.654;23.376;2022-10-17T11:23:16;33.10;1.00
1103;DHT22;538;42.654;23.376;2022-10-17T11:25:46;33.50;1.00
1103;DHT22;538;42.654;23.376;2022-10-17T11:28:18;34.30;1.00
1103;DHT22;538;42.654;23.376;2022-10-17T11:30:49;34.70;1.00
1103;DHT22;538;42.654;23.376;2022-10-17T11:33:23;35.10;1.00
1103;DHT22;538;42.654;23.376;2022-10-17T11:35:53;35.30;1.00
1103;DHT22;538;42.654;23.376;2022-10-17T11:38:35;34.70;1.00
1103;DHT22;538;42.654;23.376;2022-10-17T11:41:03;34.70;1.00
1103;DHT22;538;42.654;23.376;2022-10-17T11:43:35;34.70;1.00
1103;DHT22;538;42.654;23.376;2022-10-17T11:46:10;34.30;1.00
1103;DHT22;538;42.654;23.376;2022-10-17T11:48:47;34.90;1.00
1103;DHT22;538;42.654;23.376;2022-10-17T11:54:12;35.40;1.00
1103;DHT22;538;42.654;23.376;2022-10-17T11:56:46;35.00;1.00
1103;DHT22;538;42.654;23.376;2022-10-17T11:59:47;34.90;1.00
1103;DHT22;538;42.654;23.376;2022-10-17T12:02:47;34.40;1.00
1103;DHT22;538;42.654;23.376;2022-10-17T12:05:33;33.60;1.00
1103;DHT22;538;42.654;23.376;2022-10-17T12:08:09;32.80;1.00
1103;DHT22;538;42.654;23.376;2022-10-17T12:10:44;33.20;1.00
1103;DHT22;538;42.654;23.376;2022-10-17T12:13:51;33.40;1.00
1103;DHT22;538;42.654;23.376;2022-10-17T12:16:37;33.00;1.00
1103;DHT22;538;42.654;23.376;2022-10-17T12:19:32;33.40;1.00
1103;DHT22;538;42.654;23.376;2022-10-17T12:22:14;33.90;1.00
1103;DHT22;538;42.654;23.376;2022-10-17T12:24:44;34.00;1.00
1103;DHT22;538;42.654;23.376;2022-10-17T12:27:37;34.20;1.00
1103;DHT22;538;42.654;23.376;2022-10-17T12:30:19;34.30;1.00
1103;DHT22;538;42.654;23.376;2022-10-17T12:32:59;34.00;1.00
1103;DHT22;538;42.654;23.376;2022-10-17T12:35:29;33.90;1.00
1103;DHT22;538;42.654;23.376;2022-10-17T12:38:22;34.10;1.00
1103;DHT22;538;42.654;23.376;2022-10-17T12:41:01;33.80;1.00
1103;DHT22;538;42.654;23.376;2022-10-17T12:43:49;33.40;1.00
1103;DHT22;538;42.654;23.376;2022-10-17T12:49:47;31.40;1.00
1103;DHT22;538;42.654;23.376;2022-10-17T12:52:51;31.30;1.00
1103;DHT22;538;42.654;23.376;2022-10-17T12:55:24;31.30;1.00
1103;DHT22;538;42.654;23.376;2022-10-17T12:57:56;30.90;1.00
1103;DHT22;538;42.654;23.376;2022-10-17T13:00:30;30.60;1.00
1103;DHT22;538;42.654;23.376;2022-10-17T13:03:11;30.00;1.00
1103;DHT22;538;42.654;23.376;2022-10-17T13:05:41;29.60;1.00
1103;DHT22;538;42.654;23.376;2022-10-17T13:08:15;29.10;1.00
1103;DHT22;538;42.654;23.376;2022-10-17T13:10:46;28.40;1.00
1103;DHT22;538;42.654;23.376;2022-10-17T13:13:17;27.50;1.00
1103;DHT22;538;42.654;23.376;2022-10-17T13:15:47;27.00;1.00
1103;DHT22;538;42.654;23.376;2022-10-17T13:18:19;26.80;1.00
1103;DHT22;538;42.654;23.376;2022-10-17T13:20:55;26.40;1.00
1103;DHT22;538;42.654;23.376;2022-10-17T13:23:22;26.10;1.00
1103;DHT22;538;42.654;23.376;2022-10-17T13:26:07;25.80;1.00
1103;DHT22;538;42.654;23.376;2022-10-17T13:28:37;25.80;1.00
1103;DHT22;538;42.654;23.376;2022-10-17T13:31:04;25.70;1.00
1103;DHT22;538;42.654;23.376;2022-10-17T13:33:34;25.60;1.00
1103;DHT22;538;42.654;23.376;2022-10-17T13:36:06;25.50;1.00
1103;DHT22;538;42.654;23.376;2022-10-17T13:38:34;25.40;1.00
1103;DHT22;538;42.654;23.376;2022-10-17T13:41:03;25.10;1.00
1103;DHT22;538;42.654;23.376;2022-10-17T13:43:36;25.10;1.00
1103;DHT22;538;42.654;23.376;2022-10-17T13:46:03;25.10;1.00
1103;DHT22;538;42.654;23.376;2022-10-17T13:48:34;24.90;1.00
1103;DHT22;538;42.654;23.376;2022-10-17T13:51:03;24.80;1.00
1103;DHT22;538;42.654;23.376;2022-10-17T13:53:33;24.70;1.00
1103;DHT22;538;42.654;23.376;2022-10-17T13:56:16;24.60;1.00
1103;DHT22;538;42.654;23.376;2022-10-17T13:58:45;24.50;1.00
1103;DHT22;538;42.654;23.376;2022-10-17T14:01:13;24.20;1.00
1103;DHT22;538;42.654;23.376;2022-10-17T14:03:40;23.80;1.00
1103;DHT22;538;42.654;23.376;2022-10-17T14:06:13;23.70;1.00
1103;DHT22;538;42.654;23.376;2022-10-17T14:08:55;23.70;1.00
1103;DHT22;538;42.654;23.376;2022-10-17T14:11:38;23.60;1.00
1103;DHT22;538;42.654;23.376;2022-10-17T14:14:16;23.50;1.00
1103;DHT22;538;42.654;23.376;2022-10-17T14:16:44;23.50;1.00
1103;DHT22;538;42.654;23.376;2022-10-17T14:19:21;23.40;1.00
1103;DHT22;538;42.654;23.376;2022-10-17T14:21:52;23.20;1.00
1103;DHT22;538;42.654;23.376;2022-10-17T14:24:27;23.20;1.00
1103;DHT22;538;42.654;23.376;2022-10-17T14:26:58;23.10;1.00
1103;DHT22;538;42.654;23.376;2022-10-17T14:29:27;22.80;1.00
1103;DHT22;538;42.654;23.376;2022-10-17T14:32:00;22.60;1.00
1103;DHT22;538;42.654;23.376;2022-10-17T14:34:31;22.50;1.00
1103;DHT22;538;42.654;23.376;2022-10-17T14:36:59;22.30;1.00
1103;DHT22;538;42.654;23.376;2022-10-17T14:39:27;22.10;1.00
1103;DHT22;538;42.654;23.376;2022-10-17T14:41:55;22.00;1.00
1103;DHT22;538;42.654;23.376;2022-10-17T14:44:26;21.80;1.00
1103;DHT22;538;42.654;23.376;2022-10-17T14:47:00;21.60;1.00
1103;DHT22;538;42.654;23.376;2022-10-17T14:49:34;21.40;1.00
1103;DHT22;538;42.654;23.376;2022-10-17T14:52:24;21.20;1.00
1103;DHT22;538;42.654;23.376;2022-10-17T14:54:52;21.00;1.00
1103;DHT22;538;42.654;23.376;2022-10-17T14:57:24;20.80;1.00
1103;DHT22;538;42.654;23.376;2022-10-17T14:59:53;20.80;1.00
1103;DHT22;538;42.654;23.376;2022-10-17T15:02:21;20.60;1.00
1103;DHT22;538;42.654;23.376;2022-10-17T15:04:48;20.60;1.00
1103;DHT22;538;42.654;23.376;2022-10-17T15:07:16;20.50;1.00
1103;DHT22;538;42.654;23.376;2022-10-17T15:09:45;20.40;1.00
1103;DHT22;538;42.654;23.376;2022-10-17T15:12:14;20.30;1.00
1103;DHT22;538;42.654;23.376;2022-10-17T15:14:43;20.20;1.00
1103;DHT22;538;42.654;23.376;2022-10-17T15:17:16;19.90;1.00
1103;DHT22;538;42.654;23.376;2022-10-17T15:19:45;19.70;1.00
1103;DHT22;538;42.654;23.376;2022-10-17T15:22:12;19.40;1.00
1103;DHT22;538;42.654;23.376;2022-10-17T15:24:40;19.20;1.00
1103;DHT22;538;42.654;23.376;2022-10-17T15:27:14;19.10;1.00
1103;DHT22;538;42.654;23.376;2022-10-17T15:29:41;19.00;1.00
1103;DHT22;538;42.654;23.376;2022-10-17T15:32:08;18.90;1.00
1103;DHT22;538;42.654;23.376;2022-10-17T15:34:38;18.70;1.20
1103;DHT22;538;42.654;23.376;2022-10-17T15:37:06;18.50;1.40
1103;DHT22;538;42.654;23.376;2022-10-17T15:39:40;18.40;1.40
1103;DHT22;538;42.654;23.376;2022-10-17T15:42:08;18.30;1.60
1103;DHT22;538;42.654;23.376;2022-10-17T15:44:37;18.20;1.80
1103;DHT22;538;42.654;23.376;2022-10-17T15:47:11;18.00;1.70
1103;DHT22;538;42.654;23.376;2022-10-17T15:49:44;17.90;2.00
1103;DHT22;538;42.654;23.376;2022-10-17T15:52:11;17.80;2.20
1103;DHT22;538;42.654;23.376;2022-10-17T15:54:38;17.70;2.20
1103;DHT22;538;42.654;23.376;2022-10-17T15:57:07;17.80;2.50
1103;DHT22;538;42.654;23.376;2022-10-17T15:59:37;17.80;2.80
1103;DHT22;538;42.654;23.376;2022-10-17T16:02:10;17.70;2.80
1103;DHT22;538;42.654;23.376;2022-10-17T16:04:38;17.60;2.90
1103;DHT22;538;42.654;23.376;2022-10-17T16:07:07;17.40;3.10
1103;DHT22;538;42.654;23.376;2022-10-17T16:09:34;17.50;3.00
1103;DHT22;538;42.654;23.376;2022-10-17T16:12:04;17.30;3.20
1103;DHT22;538;42.654;23.376;2022-10-17T16:14:32;17.20;3.80
1103;DHT22;538;42.654;23.376;2022-10-17T16:17:00;17.10;3.40
1103;DHT22;538;42.654;23.376;2022-10-17T16:19:27;17.10;3.50
1103;DHT22;538;42.654;23.376;2022-10-17T16:21:56;17.10;3.60
1103;DHT22;538;42.654;23.376;2022-10-17T16:24:28;17.00;4.00
1103;DHT22;538;42.654;23.376;2022-10-17T16:26:55;16.60;3.70
1103;DHT22;538;42.654;23.376;2022-10-17T16:29:22;16.40;4.30
1103;DHT22;538;42.654;23.376;2022-10-17T16:31:49;16.20;4.60
1103;DHT22;538;42.654;23.376;2022-10-17T16:34:16;16.10;5.30
1103;DHT22;538;42.654;23.376;2022-10-17T16:36:43;16.10;5.80
1103;DHT22;538;42.654;23.376;2022-10-17T16:39:13;16.10;5.80
1103;DHT22;538;42.654;23.376;2022-10-17T16:41:44;16.00;5.30
1103;DHT22;538;42.654;23.376;2022-10-17T16:44:11;16.00;5.70
1103;DHT22;538;42.654;23.376;2022-10-17T16:46:39;15.90;4.70
1103;DHT22;538;42.654;23.376;2022-10-17T16:49:06;15.80;5.20
1103;DHT22;538;42.654;23.376;2022-10-17T16:51:34;15.70;5.10
1103;DHT22;538;42.654;23.376;2022-10-17T16:54:07;15.80;5.70
1103;DHT22;538;42.654;23.376;2022-10-17T16:56:34;15.60;5.50
1103;DHT22;538;42.654;23.376;2022-10-17T16:59:11;15.60;5.40
1103;DHT22;538;42.654;23.376;2022-10-17T17:01:38;15.50;4.30